createdAt,value
2023-05-10T00:06:45.373Z,56.1
2023-05-10T00:26:45.322Z,55.6
2023-05-10T00:46:45.470Z,56.4
2023-05-10T01:09:00.317Z,57.3
2023-05-10T01:26:45.513Z,57.8
2023-05-10T01:46:45.443Z,58.4
2023-05-10T02:06:45.419Z,59.7
2023-05-10T02:26:45.644Z,63.2
2023-05-10T02:46:45.552Z,66.7
2023-05-10T03:06:45.572Z,68.1
2023-05-10T03:26:45.523Z,75.8
2023-05-10T03:46:45.520Z,79.4
2023-05-10T04:06:45.693Z,85.7
2023-05-10T04:26:45.624Z,88.6
2023-05-10T04:46:45.932Z,94.1
2023-05-10T05:06:45.848Z,95.8
2023-05-10T05:26:45.745Z,96
2023-05-10T05:46:45.824Z,96.8
2023-05-10T06:26:46.183Z,96.7
2023-05-10T06:46:45.897Z,96.8
2023-05-10T07:06:46.068Z,95.6
2023-05-10T07:26:46.031Z,92.3
2023-05-10T07:46:45.996Z,90.6
2023-05-10T08:06:46.098Z,88.2
2023-05-10T08:26:46.043Z,86.8
2023-05-10T08:46:46.098Z,81.8
2023-05-10T09:06:46.313Z,79.4
2023-05-10T09:26:46.137Z,77.2
2023-05-10T09:46:46.230Z,75
2023-05-10T10:06:46.229Z,72.8
2023-05-10T10:26:46.284Z,69.3
2023-05-10T10:46:46.285Z,71.7
2023-05-10T11:06:46.260Z,80.7
2023-05-10T11:26:46.290Z,80.9
2023-05-10T11:46:46.453Z,77
2023-05-10T12:06:46.352Z,75.5
2023-05-10T12:26:46.369Z,70.5
2023-05-10T12:46:46.448Z,70
2023-05-10T13:26:46.488Z,78.8
2023-05-10T13:46:46.560Z,69.4
2023-05-10T14:26:46.574Z,64.4
2023-05-10T14:46:46.791Z,61.8
2023-05-10T15:06:46.515Z,63.9
2023-05-10T15:26:46.617Z,64.4
2023-05-10T15:46:46.774Z,72.7
2023-05-10T16:06:46.746Z,91.7
2023-05-10T16:26:46.718Z,94.7
2023-05-10T16:46:46.777Z,95.7
2023-05-10T17:06:46.777Z,96
2023-05-10T17:26:47.596Z,96.6
2023-05-10T17:46:46.806Z,96.4
2023-05-10T18:06:46.920Z,96.3
2023-05-10T18:26:46.827Z,96.3
2023-05-10T18:46:47.076Z,96.6
2023-05-10T19:06:46.906Z,96.1
2023-05-10T19:26:47.966Z,96.6
2023-05-10T19:46:47.024Z,96.9
2023-05-10T20:06:47.107Z,97.2
2023-05-10T20:26:47.130Z,97.3
2023-05-10T20:46:47.137Z,97.3
2023-05-10T21:06:47.170Z,97.7
2023-05-10T21:26:47.264Z,98
2023-05-10T21:46:47.297Z,98.2
2023-05-10T22:06:47.285Z,98.7
2023-05-10T22:26:47.356Z,98.8
2023-05-10T22:46:47.315Z,99
2023-05-10T23:06:47.441Z,99
2023-05-10T23:26:47.363Z,99.3
2023-05-10T23:46:47.361Z,99.3
